sensor_id;sensor_type;location;lat;lon;timestamp;P1;durP1;ratioP1;P2;durP2;ratioP2
1753;SDS011;58380;48.312;9.246;2023-03-25T07:04:10;6.63;;;1.85;;
1753;SDS011;58380;48.312;9.246;2023-03-25T07:10:18;7.75;;;2.67;;
1753;SDS011;58380;48.312;9.246;2023-03-25T07:13:15;6.18;;;2.50;;
1753;SDS011;58380;48.312;9.246;2023-03-25T07:15:53;4.20;;;2.00;;
1753;SDS011;58380;48.312;9.246;2023-03-25T07:18:19;7.93;;;1.30;;
1753;SDS011;58380;48.312;9.246;2023-03-25T07:20:45;9.03;;;2.50;;
1753;SDS011;58380;48.312;9.246;2023-03-25T07:23:10;2.67;;;0.80;;
1753;SDS011;58380;48.312;9.246;2023-03-25T07:25:35;5.80;;;2.17;;
1753;SDS011;58380;48.312;9.246;2023-03-25T07:28:01;14.63;;;5.10;;
1753;SDS011;58380;48.312;9.246;2023-03-25T07:30:29;12.35;;;4.15;;
1753;SDS011;58380;48.312;9.246;2023-03-25T07:32:55;4.82;;;1.55;;
1753;SDS011;58380;48.312;9.246;2023-03-25T07:35:26;3.28;;;0.73;;
1753;SDS011;58380;48.312;9.246;2023-03-25T07:37:53;2.43;;;0.70;;
1753;SDS011;58380;48.312;9.246;2023-03-25T07:40:23;0.80;;;0.38;;
1753;SDS011;58380;48.312;9.246;2023-03-25T07:42:52;2.08;;;1.25;;
1753;SDS011;58380;48.312;9.246;2023-03-25T07:45:19;2.10;;;0.22;;
1753;SDS011;58380;48.312;9.246;2023-03-25T07:47:44;1.05;;;0.30;;
1753;SDS011;58380;48.312;9.246;2023-03-25T07:50:15;1.50;;;0.70;;
1753;SDS011;58380;48.312;9.246;2023-03-25T07:52:48;2.15;;;0.30;;
1753;SDS011;58380;48.312;9.246;2023-03-25T07:55:13;0.73;;;0.40;;
1753;SDS011;58380;48.312;9.246;2023-03-25T07:57:41;0.90;;;0.30;;
1753;SDS011;58380;48.312;9.246;2023-03-25T08:00:08;0.10;;;0.10;;
1753;SDS011;58380;48.312;9.246;2023-03-25T08:02:38;0.95;;;0.40;;
1753;SDS011;58380;48.312;9.246;2023-03-25T08:05:05;0.80;;;0.40;;
1753;SDS011;58380;48.312;9.246;2023-03-25T08:07:33;1.38;;;0.40;;
1753;SDS011;58380;48.312;9.246;2023-03-25T08:09:59;0.32;;;0.10;;
1753;SDS011;58380;48.312;9.246;2023-03-25T08:12:25;1.00;;;0.57;;
1753;SDS011;58380;48.312;9.246;2023-03-25T08:14:50;1.83;;;0.30;;
1753;SDS011;58380;48.312;9.246;2023-03-25T08:17:15;1.13;;;0.00;;
1753;SDS011;58380;48.312;9.246;2023-03-25T08:19:41;2.20;;;0.95;;
1753;SDS011;58380;48.312;9.246;2023-03-25T08:22:07;1.07;;;0.17;;
1753;SDS011;58380;48.312;9.246;2023-03-25T08:24:32;0.90;;;0.30;;
1753;SDS011;58380;48.312;9.246;2023-03-25T08:26:58;3.67;;;1.50;;
1753;SDS011;58380;48.312;9.246;2023-03-25T08:29:26;2.67;;;1.10;;
1753;SDS011;58380;48.312;9.246;2023-03-25T08:31:53;10.15;;;1.70;;
1753;SDS011;58380;48.312;9.246;2023-03-25T08:34:20;8.10;;;2.70;;
1753;SDS011;58380;48.312;9.246;2023-03-25T08:36:47;9.52;;;3.63;;
1753;SDS011;58380;48.312;9.246;2023-03-25T08:39:12;11.50;;;3.53;;
1753;SDS011;58380;48.312;9.246;2023-03-25T08:41:41;12.20;;;3.28;;
1753;SDS011;58380;48.312;9.246;2023-03-25T08:44:08;7.35;;;2.00;;
1753;SDS011;58380;48.312;9.246;2023-03-25T08:46:34;3.00;;;0.70;;
1753;SDS011;58380;48.312;9.246;2023-03-25T08:49:00;5.38;;;2.00;;
1753;SDS011;58380;48.312;9.246;2023-03-25T08:51:27;7.72;;;2.05;;
1753;SDS011;58380;48.312;9.246;2023-03-25T08:53:52;6.40;;;2.70;;
1753;SDS011;58380;48.312;9.246;2023-03-25T08:56:17;7.07;;;2.57;;
1753;SDS011;58380;48.312;9.246;2023-03-25T08:58:43;5.10;;;1.43;;
1753;SDS011;58380;48.312;9.246;2023-03-25T09:01:08;2.80;;;0.60;;
1753;SDS011;58380;48.312;9.246;2023-03-25T09:03:34;1.57;;;0.50;;
1753;SDS011;58380;48.312;9.246;2023-03-25T09:06:05;3.95;;;1.55;;
1753;SDS011;58380;48.312;9.246;2023-03-25T09:08:32;8.02;;;3.22;;
1753;SDS011;58380;48.312;9.246;2023-03-25T09:11:01;3.35;;;0.90;;
1753;SDS011;58380;48.312;9.246;2023-03-25T09:13:26;1.33;;;0.82;;
1753;SDS011;58380;48.312;9.246;2023-03-25T09:15:51;3.23;;;0.90;;
1753;SDS011;58380;48.312;9.246;2023-03-25T09:18:17;3.10;;;0.70;;
1753;SDS011;58380;48.312;9.246;2023-03-25T09:20:43;1.17;;;0.60;;
1753;SDS011;58380;48.312;9.246;2023-03-25T09:23:12;2.72;;;0.70;;
1753;SDS011;58380;48.312;9.246;2023-03-25T09:25:39;5.18;;;2.30;;
1753;SDS011;58380;48.312;9.246;2023-03-25T09:28:04;4.63;;;1.50;;
1753;SDS011;58380;48.312;9.246;2023-03-25T09:30:30;5.97;;;2.00;;
1753;SDS011;58380;48.312;9.246;2023-03-25T09:32:56;3.65;;;1.83;;
1753;SDS011;58380;48.312;9.246;2023-03-25T09:35:21;1.93;;;0.80;;
1753;SDS011;58380;48.312;9.246;2023-03-25T09:37:46;5.33;;;1.57;;
1753;SDS011;58380;48.312;9.246;2023-03-25T09:40:15;4.07;;;1.40;;
1753;SDS011;58380;48.312;9.246;2023-03-25T09:43:02;4.63;;;1.65;;
1753;SDS011;58380;48.312;9.246;2023-03-25T09:45:42;3.58;;;1.67;;
1753;SDS011;58380;48.312;9.246;2023-03-25T09:48:30;0.47;;;0.17;;
1753;SDS011;58380;48.312;9.246;2023-03-25T09:51:13;3.28;;;1.02;;
1753;SDS011;58380;48.312;9.246;2023-03-25T09:56:42;4.68;;;1.00;;
1753;SDS011;58380;48.312;9.246;2023-03-25T09:59:09;2.92;;;0.80;;
1753;SDS011;58380;48.312;9.246;2023-03-25T10:04:53;4.90;;;1.00;;
1753;SDS011;58380;48.312;9.246;2023-03-25T10:16:45;2.00;;;0.45;;
1753;SDS011;58380;48.312;9.246;2023-03-25T10:22:16;1.70;;;0.47;;
1753;SDS011;58380;48.312;9.246;2023-03-25T10:24:54;1.77;;;0.40;;
1753;SDS011;58380;48.312;9.246;2023-03-25T10:27:38;1.75;;;0.30;;
1753;SDS011;58380;48.312;9.246;2023-03-25T10:30:13;0.60;;;0.30;;
1753;SDS011;58380;48.312;9.246;2023-03-25T10:32:47;2.17;;;0.40;;
1753;SDS011;58380;48.312;9.246;2023-03-25T10:35:20;3.00;;;1.20;;
1753;SDS011;58380;48.312;9.246;2023-03-25T10:37:51;1.60;;;0.38;;
1753;SDS011;58380;48.312;9.246;2023-03-25T10:40:29;1.60;;;0.43;;
1753;SDS011;58380;48.312;9.246;2023-03-25T10:45:48;2.47;;;0.77;;
1753;SDS011;58380;48.312;9.246;2023-03-25T10:48:21;4.75;;;1.00;;
1753;SDS011;58380;48.312;9.246;2023-03-25T10:51:00;1.13;;;0.50;;
1753;SDS011;58380;48.312;9.246;2023-03-25T10:53:32;1.27;;;0.20;;
1753;SDS011;58380;48.312;9.246;2023-03-25T10:56:01;1.63;;;0.25;;
1753;SDS011;58380;48.312;9.246;2023-03-25T10:58:57;2.05;;;0.30;;
1753;SDS011;58380;48.312;9.246;2023-03-25T11:01:41;2.10;;;0.20;;
1753;SDS011;58380;48.312;9.246;2023-03-25T11:04:08;0.50;;;0.22;;
1753;SDS011;58380;48.312;9.246;2023-03-25T11:06:40;1.23;;;0.30;;
1753;SDS011;58380;48.312;9.246;2023-03-25T11:09:24;1.50;;;0.40;;
1753;SDS011;58380;48.312;9.246;2023-03-25T11:11:54;1.85;;;0.40;;
1753;SDS011;58380;48.312;9.246;2023-03-25T11:14:25;1.27;;;0.30;;
1753;SDS011;58380;48.312;9.246;2023-03-25T11:19:25;0.30;;;0.13;;
1753;SDS011;58380;48.312;9.246;2023-03-25T11:22:02;2.95;;;0.22;;
1753;SDS011;58380;48.312;9.246;2023-03-25T11:24:40;1.63;;;0.30;;
1753;SDS011;58380;48.312;9.246;2023-03-25T11:27:10;2.13;;;0.20;;
1753;SDS011;58380;48.312;9.246;2023-03-25T11:29:52;1.27;;;0.35;;
1753;SDS011;58380;48.312;9.246;2023-03-25T11:32:32;0.75;;;0.20;;
1753;SDS011;58380;48.312;9.246;2023-03-25T11:37:43;2.78;;;0.52;;
1753;SDS011;58380;48.312;9.246;2023-03-25T11:40:14;1.48;;;0.30;;
1753;SDS011;58380;48.312;9.246;2023-03-25T11:42:42;1.85;;;0.52;;
1753;SDS011;58380;48.312;9.246;2023-03-25T11:45:46;1.20;;;0.30;;
1753;SDS011;58380;48.312;9.246;2023-03-25T11:48:16;1.33;;;0.30;;
1753;SDS011;58380;48.312;9.246;2023-03-25T11:50:53;0.40;;;0.20;;
1753;SDS011;58380;48.312;9.246;2023-03-25T11:53:23;1.42;;;0.35;;
1753;SDS011;58380;48.312;9.246;2023-03-25T11:55:55;3.85;;;0.43;;
1753;SDS011;58380;48.312;9.246;2023-03-25T11:58:31;0.38;;;0.22;;
1753;SDS011;58380;48.312;9.246;2023-03-25T12:01:05;2.05;;;0.80;;
1753;SDS011;58380;48.312;9.246;2023-03-25T12:04:16;0.55;;;0.20;;
1753;SDS011;58380;48.312;9.246;2023-03-25T12:09:32;0.22;;;0.20;;
1753;SDS011;58380;48.312;9.246;2023-03-25T12:18:03;1.23;;;0.38;;
1753;SDS011;58380;48.312;9.246;2023-03-25T12:20:59;1.30;;;0.30;;
1753;SDS011;58380;48.312;9.246;2023-03-25T12:41:48;1.27;;;0.25;;
1753;SDS011;58380;48.312;9.246;2023-03-25T12:47:34;2.45;;;0.63;;
1753;SDS011;58380;48.312;9.246;2023-03-25T12:50:25;3.45;;;0.80;;
1753;SDS011;58380;48.312;9.246;2023-03-25T12:56:15;4.45;;;1.27;;
1753;SDS011;58380;48.312;9.246;2023-03-25T12:59:05;1.50;;;0.30;;
1753;SDS011;58380;48.312;9.246;2023-03-25T13:05:16;3.00;;;1.27;;
1753;SDS011;58380;48.312;9.246;2023-03-25T13:07:58;0.95;;;0.13;;
1753;SDS011;58380;48.312;9.246;2023-03-25T13:10:37;1.67;;;0.30;;
1753;SDS011;58380;48.312;9.246;2023-03-25T13:13:18;3.33;;;1.88;;
1753;SDS011;58380;48.312;9.246;2023-03-25T13:15:56;4.32;;;1.38;;
1753;SDS011;58380;48.312;9.246;2023-03-25T13:18:41;2.20;;;0.47;;
1753;SDS011;58380;48.312;9.246;2023-03-25T13:21:20;1.75;;;0.40;;
1753;SDS011;58380;48.312;9.246;2023-03-25T13:24:04;1.98;;;0.40;;
1753;SDS011;58380;48.312;9.246;2023-03-25T13:26:39;0.40;;;0.20;;
1753;SDS011;58380;48.312;9.246;2023-03-25T13:29:30;0.93;;;0.30;;
1753;SDS011;58380;48.312;9.246;2023-03-25T13:32:26;0.88;;;0.32;;
1753;SDS011;58380;48.312;9.246;2023-03-25T13:37:56;4.35;;;0.90;;
1753;SDS011;58380;48.312;9.246;2023-03-25T13:43:42;1.42;;;0.65;;
1753;SDS011;58380;48.312;9.246;2023-03-25T13:49:12;1.80;;;0.32;;
1753;SDS011;58380;48.312;9.246;2023-03-25T13:51:39;1.35;;;0.30;;
1753;SDS011;58380;48.312;9.246;2023-03-25T13:54:51;1.83;;;0.30;;
1753;SDS011;58380;48.312;9.246;2023-03-25T14:09:04;0.85;;;0.35;;
1753;SDS011;58380;48.312;9.246;2023-03-25T14:12:29;2.28;;;0.50;;
1753;SDS011;58380;48.312;9.246;2023-03-25T14:15:05;2.05;;;0.40;;
1753;SDS011;58380;48.312;9.246;2023-03-25T14:17:56;2.05;;;0.60;;
1753;SDS011;58380;48.312;9.246;2023-03-25T14:20:28;1.45;;;0.40;;
1753;SDS011;58380;48.312;9.246;2023-03-25T14:23:01;3.35;;;0.57;;
1753;SDS011;58380;48.312;9.246;2023-03-25T14:25:39;1.98;;;0.40;;
1753;SDS011;58380;48.312;9.246;2023-03-25T14:28:19;5.00;;;0.60;;
1753;SDS011;58380;48.312;9.246;2023-03-25T14:31:05;1.55;;;0.60;;
1753;SDS011;58380;48.312;9.246;2023-03-25T14:44:32;1.50;;;0.90;;
1753;SDS011;58380;48.312;9.246;2023-03-25T14:52:54;5.20;;;3.05;;
1753;SDS011;58380;48.312;9.246;2023-03-25T14:55:39;6.13;;;2.47;;
1753;SDS011;58380;48.312;9.246;2023-03-25T14:58:22;5.68;;;1.48;;
1753;SDS011;58380;48.312;9.246;2023-03-25T15:00:52;2.65;;;0.98;;
1753;SDS011;58380;48.312;9.246;2023-03-25T15:03:32;5.15;;;3.08;;
1753;SDS011;58380;48.312;9.246;2023-03-25T15:06:03;6.95;;;4.07;;
1753;SDS011;58380;48.312;9.246;2023-03-25T15:08:34;8.95;;;2.60;;
1753;SDS011;58380;48.312;9.246;2023-03-25T15:11:18;3.67;;;1.25;;
1753;SDS011;58380;48.312;9.246;2023-03-25T15:14:26;2.70;;;0.90;;
1753;SDS011;58380;48.312;9.246;2023-03-25T15:17:08;3.15;;;1.45;;
1753;SDS011;58380;48.312;9.246;2023-03-25T15:22:35;1.38;;;0.57;;
1753;SDS011;58380;48.312;9.246;2023-03-25T15:25:20;1.95;;;0.60;;
1753;SDS011;58380;48.312;9.246;2023-03-25T15:27:53;3.50;;;0.77;;
1753;SDS011;58380;48.312;9.246;2023-03-25T15:51:17;2.63;;;1.10;;
1753;SDS011;58380;48.312;9.246;2023-03-25T15:57:12;0.75;;;0.30;;
1753;SDS011;58380;48.312;9.246;2023-03-25T15:59:46;0.80;;;0.30;;
1753;SDS011;58380;48.312;9.246;2023-03-25T16:02:29;3.45;;;0.50;;
1753;SDS011;58380;48.312;9.246;2023-03-25T16:05:01;1.45;;;0.43;;
1753;SDS011;58380;48.312;9.246;2023-03-25T16:07:28;3.72;;;0.60;;
1753;SDS011;58380;48.312;9.246;2023-03-25T16:10:02;2.42;;;0.40;;
1753;SDS011;58380;48.312;9.246;2023-03-25T16:12:42;1.70;;;0.30;;
1753;SDS011;58380;48.312;9.246;2023-03-25T16:15:32;2.45;;;0.50;;
1753;SDS011;58380;48.312;9.246;2023-03-25T16:18:00;3.58;;;0.80;;
1753;SDS011;58380;48.312;9.246;2023-03-25T16:20:31;2.00;;;0.52;;
1753;SDS011;58380;48.312;9.246;2023-03-25T16:23:00;4.75;;;0.70;;
1753;SDS011;58380;48.312;9.246;2023-03-25T16:25:35;13.90;;;5.70;;
1753;SDS011;58380;48.312;9.246;2023-03-25T16:28:15;15.00;;;5.95;;
1753;SDS011;58380;48.312;9.246;2023-03-25T16:30:52;8.18;;;2.78;;
1753;SDS011;58380;48.312;9.246;2023-03-25T16:33:20;8.20;;;1.77;;
1753;SDS011;58380;48.312;9.246;2023-03-25T16:36:01;5.25;;;2.33;;
1753;SDS011;58380;48.312;9.246;2023-03-25T16:38:32;5.78;;;2.42;;
1753;SDS011;58380;48.312;9.246;2023-03-25T16:41:11;3.25;;;1.20;;
1753;SDS011;58380;48.312;9.246;2023-03-25T16:43:38;3.38;;;1.15;;
1753;SDS011;58380;48.312;9.246;2023-03-25T16:46:06;5.63;;;0.95;;
1753;SDS011;58380;48.312;9.246;2023-03-25T16:48:35;3.85;;;0.85;;
1753;SDS011;58380;48.312;9.246;2023-03-25T16:51:11;3.60;;;1.10;;
1753;SDS011;58380;48.312;9.246;2023-03-25T16:53:41;3.38;;;1.17;;
1753;SDS011;58380;48.312;9.246;2023-03-25T16:58:34;2.67;;;0.83;;
1753;SDS011;58380;48.312;9.246;2023-03-25T17:01:13;6.68;;;0.75;;
1753;SDS011;58380;48.312;9.246;2023-03-25T17:03:44;6.65;;;1.90;;
1753;SDS011;58380;48.312;9.246;2023-03-25T17:08:50;2.88;;;0.88;;
1753;SDS011;58380;48.312;9.246;2023-03-25T17:13:58;4.90;;;1.60;;
1753;SDS011;58380;48.312;9.246;2023-03-25T17:16:38;6.90;;;1.25;;
1753;SDS011;58380;48.312;9.246;2023-03-25T17:19:06;5.22;;;1.70;;
1753;SDS011;58380;48.312;9.246;2023-03-25T17:21:37;5.95;;;2.00;;
1753;SDS011;58380;48.312;9.246;2023-03-25T17:24:48;4.97;;;2.05;;
1753;SDS011;58380;48.312;9.246;2023-03-25T17:27:24;10.30;;;3.22;;
1753;SDS011;58380;48.312;9.246;2023-03-25T17:29:58;6.50;;;2.90;;
1753;SDS011;58380;48.312;9.246;2023-03-25T17:32:41;6.15;;;2.42;;
1753;SDS011;58380;48.312;9.246;2023-03-25T17:35:14;9.32;;;2.00;;
1753;SDS011;58380;48.312;9.246;2023-03-25T17:37:54;5.32;;;1.63;;
1753;SDS011;58380;48.312;9.246;2023-03-25T17:40:22;6.97;;;2.25;;
1753;SDS011;58380;48.312;9.246;2023-03-25T17:42:54;4.90;;;1.67;;
1753;SDS011;58380;48.312;9.246;2023-03-25T17:45:21;17.25;;;6.95;;
1753;SDS011;58380;48.312;9.246;2023-03-25T17:47:49;17.67;;;7.03;;
1753;SDS011;58380;48.312;9.246;2023-03-25T17:50:20;6.07;;;2.40;;
1753;SDS011;58380;48.312;9.246;2023-03-25T17:52:51;7.85;;;2.42;;
1753;SDS011;58380;48.312;9.246;2023-03-25T17:55:24;7.65;;;2.17;;
1753;SDS011;58380;48.312;9.246;2023-03-25T17:57:51;8.02;;;2.58;;
1753;SDS011;58380;48.312;9.246;2023-03-25T18:00:23;8.73;;;3.17;;
1753;SDS011;58380;48.312;9.246;2023-03-25T18:02:48;5.93;;;2.13;;
1753;SDS011;58380;48.312;9.246;2023-03-25T18:05:14;10.00;;;3.22;;
1753;SDS011;58380;48.312;9.246;2023-03-25T18:07:40;5.95;;;1.92;;
1753;SDS011;58380;48.312;9.246;2023-03-25T18:10:09;6.60;;;2.43;;
1753;SDS011;58380;48.312;9.246;2023-03-25T18:15:07;4.70;;;1.30;;
1753;SDS011;58380;48.312;9.246;2023-03-25T18:17:33;6.05;;;1.90;;
1753;SDS011;58380;48.312;9.246;2023-03-25T18:19:59;5.57;;;2.10;;
1753;SDS011;58380;48.312;9.246;2023-03-25T18:22:24;16.43;;;6.60;;
1753;SDS011;58380;48.312;9.246;2023-03-25T18:24:50;6.37;;;4.33;;
1753;SDS011;58380;48.312;9.246;2023-03-25T18:27:16;4.90;;;1.85;;
1753;SDS011;58380;48.312;9.246;2023-03-25T18:29:41;4.03;;;1.48;;
1753;SDS011;58380;48.312;9.246;2023-03-25T18:32:07;4.50;;;1.80;;
1753;SDS011;58380;48.312;9.246;2023-03-25T18:34:33;14.18;;;4.38;;
1753;SDS011;58380;48.312;9.246;2023-03-25T18:36:58;8.53;;;1.77;;
1753;SDS011;58380;48.312;9.246;2023-03-25T18:39:24;2.03;;;0.80;;
1753;SDS011;58380;48.312;9.246;2023-03-25T18:41:51;2.92;;;1.13;;
1753;SDS011;58380;48.312;9.246;2023-03-25T18:44:17;2.47;;;0.90;;
1753;SDS011;58380;48.312;9.246;2023-03-25T18:46:43;6.50;;;0.68;;
1753;SDS011;58380;48.312;9.246;2023-03-25T18:49:15;3.97;;;0.60;;
1753;SDS011;58380;48.312;9.246;2023-03-25T18:51:43;4.32;;;0.80;;
1753;SDS011;58380;48.312;9.246;2023-03-25T18:54:12;3.95;;;1.02;;
1753;SDS011;58380;48.312;9.246;2023-03-25T18:56:37;3.38;;;0.68;;
1753;SDS011;58380;48.312;9.246;2023-03-25T18:59:05;2.20;;;0.90;;
1753;SDS011;58380;48.312;9.246;2023-03-25T19:01:31;8.88;;;3.90;;
1753;SDS011;58380;48.312;9.246;2023-03-25T19:03:56;4.03;;;1.90;;
1753;SDS011;58380;48.312;9.246;2023-03-25T19:06:26;10.80;;;1.92;;
1753;SDS011;58380;48.312;9.246;2023-03-25T19:08:56;5.70;;;1.65;;
1753;SDS011;58380;48.312;9.246;2023-03-25T19:11:22;6.90;;;1.60;;
1753;SDS011;58380;48.312;9.246;2023-03-25T19:13:48;5.55;;;2.00;;
1753;SDS011;58380;48.312;9.246;2023-03-25T19:16:15;5.65;;;1.85;;
1753;SDS011;58380;48.312;9.246;2023-03-25T19:18:41;9.25;;;2.30;;
1753;SDS011;58380;48.312;9.246;2023-03-25T19:21:06;6.00;;;2.50;;
1753;SDS011;58380;48.312;9.246;2023-03-25T19:23:32;5.53;;;1.83;;
1753;SDS011;58380;48.312;9.246;2023-03-25T19:28:25;10.77;;;3.00;;
1753;SDS011;58380;48.312;9.246;2023-03-25T19:30:51;9.68;;;3.83;;
1753;SDS011;58380;48.312;9.246;2023-03-25T19:33:18;8.20;;;3.00;;
1753;SDS011;58380;48.312;9.246;2023-03-25T19:38:21;7.03;;;3.05;;
1753;SDS011;58380;48.312;9.246;2023-03-25T19:40:48;19.30;;;5.45;;
1753;SDS011;58380;48.312;9.246;2023-03-25T19:43:23;15.38;;;6.20;;
1753;SDS011;58380;48.312;9.246;2023-03-25T19:45:49;14.00;;;3.80;;
1753;SDS011;58380;48.312;9.246;2023-03-25T19:48:20;14.13;;;4.22;;
1753;SDS011;58380;48.312;9.246;2023-03-25T19:50:45;12.00;;;2.70;;
1753;SDS011;58380;48.312;9.246;2023-03-25T19:53:10;7.37;;;2.80;;
1753;SDS011;58380;48.312;9.246;2023-03-25T19:55:36;9.93;;;2.27;;
1753;SDS011;58380;48.312;9.246;2023-03-25T19:58:05;8.35;;;1.92;;
1753;SDS011;58380;48.312;9.246;2023-03-25T20:00:31;6.15;;;1.27;;
1753;SDS011;58380;48.312;9.246;2023-03-25T20:02:57;4.40;;;1.60;;
1753;SDS011;58380;48.312;9.246;2023-03-25T20:05:24;3.67;;;1.67;;
1753;SDS011;58380;48.312;9.246;2023-03-25T20:07:51;7.95;;;2.85;;
1753;SDS011;58380;48.312;9.246;2023-03-25T20:10:20;14.63;;;4.20;;
1753;SDS011;58380;48.312;9.246;2023-03-25T20:12:51;9.38;;;3.60;;
1753;SDS011;58380;48.312;9.246;2023-03-25T20:15:17;13.93;;;4.10;;
1753;SDS011;58380;48.312;9.246;2023-03-25T20:17:46;13.52;;;4.22;;
1753;SDS011;58380;48.312;9.246;2023-03-25T20:20:13;14.73;;;6.13;;
1753;SDS011;58380;48.312;9.246;2023-03-25T20:22:40;11.77;;;4.68;;
1753;SDS011;58380;48.312;9.246;2023-03-25T20:25:08;23.08;;;6.80;;
1753;SDS011;58380;48.312;9.246;2023-03-25T20:27:36;9.57;;;3.80;;
1753;SDS011;58380;48.312;9.246;2023-03-25T20:30:03;9.45;;;3.35;;
1753;SDS011;58380;48.312;9.246;2023-03-25T20:32:31;9.63;;;3.83;;
1753;SDS011;58380;48.312;9.246;2023-03-25T20:34:56;7.68;;;2.45;;
1753;SDS011;58380;48.312;9.246;2023-03-25T20:37:22;3.83;;;1.83;;
1753;SDS011;58380;48.312;9.246;2023-03-25T20:39:49;6.32;;;1.70;;
1753;SDS011;58380;48.312;9.246;2023-03-25T20:42:15;6.72;;;1.65;;
1753;SDS011;58380;48.312;9.246;2023-03-25T20:44:40;3.13;;;1.30;;
1753;SDS011;58380;48.312;9.246;2023-03-25T20:47:07;4.55;;;1.33;;
1753;SDS011;58380;48.312;9.246;2023-03-25T20:49:33;7.45;;;1.42;;
1753;SDS011;58380;48.312;9.246;2023-03-25T20:51:59;5.13;;;1.83;;
1753;SDS011;58380;48.312;9.246;2023-03-25T20:54:24;3.77;;;1.50;;
1753;SDS011;58380;48.312;9.246;2023-03-25T20:56:51;5.22;;;1.52;;
1753;SDS011;58380;48.312;9.246;2023-03-25T20:59:17;6.20;;;1.35;;
1753;SDS011;58380;48.312;9.246;2023-03-25T21:01:45;2.60;;;1.10;;
1753;SDS011;58380;48.312;9.246;2023-03-25T21:04:15;4.05;;;1.30;;
1753;SDS011;58380;48.312;9.246;2023-03-25T21:06:41;3.05;;;1.60;;
1753;SDS011;58380;48.312;9.246;2023-03-25T21:09:08;7.50;;;2.40;;
1753;SDS011;58380;48.312;9.246;2023-03-25T21:11:36;8.57;;;2.20;;
1753;SDS011;58380;48.312;9.246;2023-03-25T21:14:02;6.13;;;2.17;;
1753;SDS011;58380;48.312;9.246;2023-03-25T21:16:29;6.63;;;2.40;;
1753;SDS011;58380;48.312;9.246;2023-03-25T21:18:55;12.60;;;4.80;;
1753;SDS011;58380;48.312;9.246;2023-03-25T21:21:25;20.88;;;6.95;;
1753;SDS011;58380;48.312;9.246;2023-03-25T21:23:55;26.35;;;9.55;;
1753;SDS011;58380;48.312;9.246;2023-03-25T21:26:21;9.25;;;2.70;;
1753;SDS011;58380;48.312;9.246;2023-03-25T21:28:47;7.55;;;2.05;;
1753;SDS011;58380;48.312;9.246;2023-03-25T21:33:43;7.10;;;2.55;;
1753;SDS011;58380;48.312;9.246;2023-03-25T21:38:36;6.40;;;2.20;;
1753;SDS011;58380;48.312;9.246;2023-03-25T21:41:03;3.67;;;1.30;;
1753;SDS011;58380;48.312;9.246;2023-03-25T21:43:32;2.92;;;0.85;;
1753;SDS011;58380;48.312;9.246;2023-03-25T21:46:00;1.92;;;0.50;;
1753;SDS011;58380;48.312;9.246;2023-03-25T21:48:26;2.83;;;0.57;;
1753;SDS011;58380;48.312;9.246;2023-03-25T21:50:53;3.10;;;0.60;;
1753;SDS011;58380;48.312;9.246;2023-03-25T21:53:26;5.03;;;0.77;;
1753;SDS011;58380;48.312;9.246;2023-03-25T21:55:57;2.85;;;0.65;;
1753;SDS011;58380;48.312;9.246;2023-03-25T21:58:30;1.20;;;0.60;;
1753;SDS011;58380;48.312;9.246;2023-03-25T22:01:03;5.07;;;0.70;;
1753;SDS011;58380;48.312;9.246;2023-03-25T22:03:39;3.70;;;0.98;;
1753;SDS011;58380;48.312;9.246;2023-03-25T22:06:16;3.33;;;0.80;;
1753;SDS011;58380;48.312;9.246;2023-03-25T22:08:45;2.05;;;0.70;;
1753;SDS011;58380;48.312;9.246;2023-03-25T22:11:15;3.58;;;0.57;;
